createdAt,value
2023-02-20T00:01:19.557Z,46.56
2023-02-20T00:03:46.835Z,46.89
2023-02-20T00:06:13.958Z,46.75
2023-02-20T00:08:41.487Z,46.76
2023-02-20T00:11:08.605Z,46.98
2023-02-20T00:13:35.333Z,47.07
2023-02-20T00:16:02.240Z,46.58
2023-02-20T00:18:29.103Z,46.69
2023-02-20T00:20:55.811Z,46.49
2023-02-20T00:23:22.496Z,46.79
2023-02-20T00:25:49.329Z,46.61
2023-02-20T00:28:16.069Z,47.21
2023-02-20T00:30:42.828Z,46.29
2023-02-20T00:33:09.679Z,46.50
2023-02-20T00:35:38.610Z,46.81
2023-02-20T00:38:05.430Z,46.35
2023-02-20T00:40:32.213Z,46.70
2023-02-20T00:42:58.974Z,46.74
2023-02-20T00:45:25.786Z,46.55
2023-02-20T00:47:52.650Z,46.79
2023-02-20T00:50:19.833Z,47.01
2023-02-20T00:52:47.810Z,46.57
2023-02-20T00:55:14.895Z,46.81
2023-02-20T00:57:42.261Z,46.67
2023-02-20T01:00:13.043Z,46.63
2023-02-20T01:02:39.941Z,46.79
2023-02-20T01:05:07.050Z,47.13
2023-02-20T01:07:33.779Z,46.79
2023-02-20T01:10:00.553Z,46.82
2023-02-20T01:12:27.470Z,46.29
2023-02-20T01:14:54.373Z,47.09
2023-02-20T01:17:21.537Z,46.28
2023-02-20T01:19:48.402Z,46.44
2023-02-20T01:22:15.230Z,46.30
2023-02-20T01:24:43.375Z,46.80
2023-02-20T01:27:10.549Z,46.83
2023-02-20T01:29:37.712Z,46.95
2023-02-20T01:32:04.694Z,46.37
2023-02-20T01:34:31.727Z,46.66
2023-02-20T01:36:59.244Z,47.12
2023-02-20T01:39:29.858Z,46.99
2023-02-20T01:42:07.201Z,47.04
2023-02-20T01:44:36.719Z,46.88
2023-02-20T01:47:15.267Z,46.62
2023-02-20T01:49:48.824Z,46.63
2023-02-20T01:52:20.328Z,47.09
2023-02-20T01:54:55.904Z,46.59
2023-02-20T01:57:26.446Z,46.88
2023-02-20T01:59:59.081Z,46.40
2023-02-20T02:02:31.521Z,46.40
2023-02-20T02:04:59.018Z,46.72
2023-02-20T02:07:27.232Z,46.71
2023-02-20T02:09:59.491Z,46.70
2023-02-20T02:12:26.612Z,46.94
2023-02-20T02:14:54.061Z,46.96
2023-02-20T02:17:42.762Z,46.59
2023-02-20T02:20:44.439Z,46.83
2023-02-20T02:23:29.443Z,46.95
2023-02-20T02:26:18.181Z,46.51
2023-02-20T02:29:16.746Z,46.87
2023-02-20T02:32:04.866Z,46.39
2023-02-20T02:35:05.822Z,46.59
2023-02-20T02:37:50.740Z,46.23
2023-02-20T02:40:46.555Z,46.75
2023-02-20T02:43:37.819Z,46.59
2023-02-20T02:46:23.149Z,46.25
2023-02-20T02:49:17.328Z,46.63
2023-02-20T02:51:48.275Z,46.67
2023-02-20T02:54:21.161Z,46.39
2023-02-20T02:56:49.235Z,46.98
2023-02-20T02:59:33.021Z,46.32
2023-02-20T03:02:05.033Z,47.02
2023-02-20T03:04:33.925Z,46.38
2023-02-20T03:07:08.656Z,46.38
2023-02-20T03:09:45.378Z,47.07
2023-02-20T03:12:17.636Z,46.72
2023-02-20T03:15:24.480Z,47.01
2023-02-20T03:18:12.652Z,46.96
2023-02-20T03:21:09.800Z,46.63
2023-02-20T03:23:41.947Z,46.30
2023-02-20T03:26:22.645Z,46.25
2023-02-20T03:28:58.266Z,46.07
2023-02-20T03:31:38.156Z,46.80
2023-02-20T03:34:32.902Z,46.52
2023-02-20T03:37:34.643Z,46.82
2023-02-20T03:40:25.405Z,46.23
2023-02-20T03:43:15.695Z,46.00
2023-02-20T03:45:44.696Z,46.59
2023-02-20T03:48:27.810Z,46.09
2023-02-20T03:50:54.754Z,46.39
2023-02-20T03:53:22.190Z,46.84
2023-02-20T03:55:52.380Z,46.42
2023-02-20T03:58:33.986Z,46.48
2023-02-20T04:01:03.943Z,46.75
2023-02-20T04:03:35.368Z,46.24
2023-02-20T04:06:04.410Z,46.16
2023-02-20T04:08:38.909Z,46.45
2023-02-20T04:11:21.738Z,46.72
2023-02-20T04:13:52.538Z,47.09
2023-02-20T04:16:21.585Z,46.40
2023-02-20T04:18:50.015Z,46.35
2023-02-20T04:21:42.666Z,46.31
2023-02-20T04:24:14.732Z,46.71
2023-02-20T04:26:42.388Z,46.18
2023-02-20T04:29:09.949Z,46.53
2023-02-20T04:31:37.373Z,46.72
2023-02-20T04:34:04.759Z,46.77
2023-02-20T04:36:32.101Z,46.77
2023-02-20T04:38:59.675Z,46.17
2023-02-20T04:41:27.200Z,46.60
2023-02-20T04:44:14.560Z,46.77
2023-02-20T04:46:41.923Z,46.69
2023-02-20T04:49:09.160Z,46.23
2023-02-20T04:51:36.517Z,46.50
2023-02-20T04:54:03.971Z,46.33
2023-02-20T04:56:31.119Z,46.74
2023-02-20T04:58:58.460Z,46.02
2023-02-20T05:01:25.978Z,46.57
2023-02-20T05:03:53.496Z,46.98
2023-02-20T05:06:21.156Z,46.82
2023-02-20T05:08:50.226Z,46.53
2023-02-20T05:11:18.229Z,46.44
2023-02-20T05:13:45.580Z,46.27
2023-02-20T05:16:14.430Z,46.52
2023-02-20T05:18:42.119Z,46.87
2023-02-20T05:21:33.145Z,46.81
2023-02-20T05:24:00.398Z,47.04
2023-02-20T05:26:28.062Z,46.25
2023-02-20T05:28:55.461Z,46.74
2023-02-20T05:31:22.840Z,46.10
2023-02-20T05:33:50.208Z,46.23
2023-02-20T05:36:17.994Z,46.48
2023-02-20T05:38:48.634Z,46.90
2023-02-20T05:41:16.596Z,46.34
2023-02-20T05:43:55.212Z,46.56
2023-02-20T05:46:22.582Z,46.95
2023-02-20T05:48:50.908Z,47.08
2023-02-20T05:51:27.002Z,46.89
2023-02-20T05:53:54.631Z,46.18
2023-02-20T05:56:22.035Z,46.80
2023-02-20T05:58:59.005Z,46.06
2023-02-20T06:01:29.130Z,46.65
2023-02-20T06:03:57.201Z,46.13
2023-02-20T06:06:25.233Z,46.14
2023-02-20T06:08:55.593Z,46.80
2023-02-20T06:11:23.056Z,46.40
2023-02-20T06:13:50.607Z,46.92
2023-02-20T06:16:37.498Z,46.20
2023-02-20T06:19:06.207Z,46.13
2023-02-20T06:21:36.185Z,46.14
2023-02-20T06:24:03.987Z,46.66
2023-02-20T06:26:31.239Z,46.31
2023-02-20T06:28:58.905Z,46.37
2023-02-20T06:31:28.755Z,46.29
2023-02-20T06:34:00.672Z,45.95
2023-02-20T06:36:31.277Z,46.40
2023-02-20T06:39:00.190Z,46.01
2023-02-20T06:41:30.648Z,46.28
2023-02-20T06:43:57.930Z,45.92
2023-02-20T06:46:25.614Z,46.37
2023-02-20T06:48:56.257Z,46.20
2023-02-20T06:51:34.916Z,46.20
2023-02-20T06:54:04.002Z,46.29
2023-02-20T06:56:33.823Z,46.33
2023-02-20T06:59:03.054Z,47.25
2023-02-20T07:01:41.827Z,46.69
2023-02-20T07:04:28.165Z,46.43
2023-02-20T07:06:55.959Z,46.43
2023-02-20T07:09:31.252Z,46.92
2023-02-20T07:12:07.915Z,46.40
2023-02-20T07:14:35.458Z,46.62
2023-02-20T07:17:02.732Z,46.54
2023-02-20T07:19:33.262Z,45.87
2023-02-20T07:22:00.514Z,46.67
2023-02-20T07:24:28.769Z,45.79
2023-02-20T07:29:24.620Z,46.11
2023-02-20T07:31:54.646Z,46.80
2023-02-20T07:34:21.765Z,46.26
2023-02-20T07:36:49.042Z,46.00
2023-02-20T07:39:16.805Z,46.48
2023-02-20T07:41:44.264Z,46.74
2023-02-20T07:44:13.288Z,46.15
2023-02-20T07:46:41.027Z,46.63
2023-02-20T07:49:08.131Z,46.18
2023-02-20T07:51:36.044Z,45.98
2023-02-20T07:54:03.400Z,46.21
2023-02-20T07:56:30.854Z,46.38
2023-02-20T07:59:00.395Z,45.48
2023-02-20T08:01:28.045Z,46.08
2023-02-20T08:03:55.475Z,45.98
2023-02-20T08:06:22.628Z,46.00
2023-02-20T08:08:50.798Z,45.98
2023-02-20T08:11:20.223Z,46.23
2023-02-20T08:13:47.349Z,46.29
2023-02-20T08:16:17.887Z,45.56
2023-02-20T08:18:45.544Z,45.45
2023-02-20T08:21:12.794Z,46.15
2023-02-20T08:23:43.324Z,46.13
2023-02-20T08:26:11.199Z,45.85
2023-02-20T08:28:38.591Z,45.38
2023-02-20T08:31:06.140Z,45.64
2023-02-20T08:33:33.248Z,46.07
2023-02-20T08:36:00.543Z,45.92
2023-02-20T08:38:33.736Z,45.48
2023-02-20T08:41:04.018Z,45.64
2023-02-20T08:43:30.711Z,45.38
2023-02-20T08:45:57.506Z,45.56
2023-02-20T08:48:24.582Z,45.38
2023-02-20T08:50:52.030Z,45.31
2023-02-20T08:53:19.450Z,45.83
2023-02-20T08:55:46.517Z,45.11
2023-02-20T08:58:13.860Z,45.36
2023-02-20T09:00:40.877Z,45.36
2023-02-20T09:03:08.830Z,45.26
2023-02-20T09:05:38.873Z,45.73
2023-02-20T09:08:25.533Z,45.85
2023-02-20T09:11:05.749Z,45.39
2023-02-20T09:13:44.643Z,45.74
2023-02-20T09:16:13.664Z,45.31
2023-02-20T09:18:41.128Z,45.13
2023-02-20T09:21:13.023Z,45.66
2023-02-20T09:23:40.557Z,45.53
2023-02-20T09:26:08.536Z,45.79
2023-02-20T09:28:36.303Z,46.89
2023-02-20T09:31:03.778Z,46.08
2023-02-20T09:33:51.331Z,45.79
2023-02-20T09:36:19.259Z,45.27
2023-02-20T09:38:46.689Z,45.28
2023-02-20T09:41:34.443Z,45.29
2023-02-20T09:44:42.405Z,44.68
2023-02-20T09:47:27.527Z,45.52
2023-02-20T09:50:00.053Z,45.48
2023-02-20T09:52:28.637Z,45.52
2023-02-20T09:55:04.066Z,44.90
2023-02-20T09:57:32.967Z,44.83
2023-02-20T10:00:22.113Z,44.66
2023-02-20T10:02:59.377Z,45.44
2023-02-20T10:05:29.614Z,44.65
2023-02-20T10:07:56.296Z,44.77
2023-02-20T10:10:26.084Z,45.37
2023-02-20T10:13:22.073Z,45.57
2023-02-20T10:16:10.178Z,45.04
2023-02-20T10:18:49.677Z,45.43
2023-02-20T10:21:44.031Z,44.65
2023-02-20T10:24:35.675Z,44.76
2023-02-20T10:27:23.005Z,44.87
2023-02-20T10:29:51.005Z,44.29
2023-02-20T10:32:31.042Z,44.84
2023-02-20T10:35:07.040Z,44.89
2023-02-20T10:37:47.358Z,44.76
2023-02-20T10:40:34.726Z,44.60
2023-02-20T10:43:50.906Z,44.60
2023-02-20T10:46:32.385Z,44.86
2023-02-20T10:56:21.380Z,44.09
2023-02-20T11:18:48.054Z,43.66
2023-02-20T11:21:01.067Z,44.53
2023-02-20T11:27:44.820Z,44.19
2023-02-20T11:38:57.424Z,44.56
2023-02-20T11:48:23.064Z,44.30
2023-02-20T11:50:54.123Z,45.18
2023-02-20T11:53:37.173Z,43.81
2023-02-20T11:56:36.255Z,44.57
2023-02-20T11:59:49.029Z,44.26
2023-02-20T12:06:12.779Z,44.17
2023-02-20T12:12:50.261Z,44.25
2023-02-20T12:15:49.767Z,44.28
2023-02-20T12:20:07.533Z,44.39
2023-02-20T12:23:01.463Z,44.36
2023-02-20T12:26:08.453Z,44.70
2023-02-20T12:29:11.687Z,44.49
2023-02-20T12:32:20.829Z,44.66
2023-02-20T12:35:06.732Z,44.72
2023-02-20T12:37:48.901Z,44.84
2023-02-20T12:40:41.223Z,44.29
2023-02-20T12:43:24.194Z,44.01
2023-02-20T12:46:37.344Z,44.35
2023-02-20T12:49:55.873Z,44.20
2023-02-20T12:52:31.811Z,44.32
2023-02-20T12:55:22.533Z,44.93
2023-02-20T12:58:11.141Z,44.31
2023-02-20T13:00:47.148Z,44.86
2023-02-20T13:03:34.964Z,44.20
2023-02-20T13:06:05.976Z,44.23
2023-02-20T13:08:32.960Z,44.73
2023-02-20T13:11:06.059Z,44.61
2023-02-20T13:14:01.212Z,44.06
2023-02-20T13:16:49.298Z,44.31
2023-02-20T13:20:04.996Z,44.53
2023-02-20T13:23:03.794Z,44.66
2023-02-20T13:25:34.240Z,44.08
2023-02-20T13:28:55.309Z,44.19
2023-02-20T13:31:50.333Z,44.28
2023-02-20T13:34:25.834Z,44.80
2023-02-20T13:36:59.584Z,44.37
2023-02-20T13:43:40.844Z,44.51
2023-02-20T13:50:32.162Z,44.42
2023-02-20T13:53:22.400Z,44.58
2023-02-20T13:56:19.843Z,44.40
2023-02-20T13:58:48.951Z,44.47
2023-02-20T14:01:22.383Z,44.58
2023-02-20T14:04:15.150Z,44.64
2023-02-20T14:06:59.810Z,44.89
2023-02-20T14:10:38.738Z,44.86
2023-02-20T14:13:57.248Z,44.57
2023-02-20T14:17:11.904Z,44.91
2023-02-20T14:19:59.503Z,45.00
2023-02-20T14:23:27.712Z,45.02
2023-02-20T14:30:03.859Z,44.49
2023-02-20T14:32:48.970Z,44.75
2023-02-20T14:36:16.663Z,44.92
2023-02-20T14:39:26.390Z,44.86
2023-02-20T14:45:25.202Z,44.53
2023-02-20T14:51:28.404Z,44.29
2023-02-20T14:54:30.391Z,44.58
2023-02-20T14:56:57.961Z,44.61
2023-02-20T15:04:03.228Z,44.02
2023-02-20T15:06:47.481Z,44.36
2023-02-20T15:09:31.007Z,44.66
2023-02-20T15:20:08.961Z,44.13
2023-02-20T15:22:41.126Z,44.81
2023-02-20T15:29:21.414Z,44.33
2023-02-20T15:32:06.814Z,44.43
2023-02-20T15:34:38.769Z,45.01
2023-02-20T15:37:49.200Z,44.60
2023-02-20T15:40:33.934Z,45.15
2023-02-20T15:43:45.188Z,44.61
2023-02-20T15:46:18.224Z,44.26
2023-02-20T15:48:46.125Z,44.21
2023-02-20T15:51:22.597Z,44.16
2023-02-20T15:53:53.130Z,44.84
2023-02-20T16:00:06.680Z,44.24
2023-02-20T16:03:07.084Z,44.62
2023-02-20T16:06:20.220Z,44.41
2023-02-20T16:08:56.922Z,44.79
2023-02-20T16:11:52.838Z,45.24
2023-02-20T16:14:20.296Z,45.28
2023-02-20T16:16:54.098Z,45.08
2023-02-20T16:19:36.584Z,45.07
2023-02-20T16:22:12.877Z,45.02
2023-02-20T16:24:40.959Z,44.88
2023-02-20T16:27:50.392Z,45.58
2023-02-20T16:34:01.639Z,45.22
2023-02-20T16:40:55.492Z,44.65
2023-02-20T16:43:24.080Z,44.71
2023-02-20T16:46:10.832Z,44.06
2023-02-20T16:48:38.557Z,44.07
2023-02-20T16:54:21.292Z,43.77
2023-02-20T16:56:48.989Z,43.75
2023-02-20T16:59:16.311Z,44.06
2023-02-20T17:02:01.706Z,44.08
2023-02-20T17:04:34.190Z,43.75
2023-02-20T17:07:04.688Z,43.50
2023-02-20T17:09:42.891Z,43.86
2023-02-20T17:12:13.122Z,44.04
2023-02-20T17:14:48.176Z,44.56
2023-02-20T17:17:15.830Z,44.48
2023-02-20T17:19:44.305Z,44.51
2023-02-20T17:22:15.648Z,44.90
2023-02-20T17:24:52.318Z,44.51
2023-02-20T17:27:26.343Z,44.44
2023-02-20T17:30:09.369Z,44.46
2023-02-20T17:32:46.021Z,44.55
2023-02-20T17:35:33.772Z,44.62
2023-02-20T17:38:04.604Z,44.75
2023-02-20T17:40:34.927Z,44.46
2023-02-20T17:43:16.512Z,45.00
2023-02-20T17:49:20.754Z,45.07
2023-02-20T17:52:15.966Z,45.13
2023-02-20T17:54:57.401Z,45.13
2023-02-20T21:05:10.630Z,44.67
2023-02-20T21:07:39.584Z,44.67
2023-02-20T21:10:06.981Z,45.02
2023-02-20T21:12:33.675Z,45.25
2023-02-20T21:15:00.405Z,44.78
2023-02-20T21:17:27.371Z,45.14
2023-02-20T21:19:54.102Z,45.05
2023-02-20T21:22:21.094Z,45.23
2023-02-20T21:24:48.149Z,44.78
2023-02-20T21:27:14.823Z,44.91
2023-02-20T21:29:42.103Z,45.23
2023-02-20T21:32:09.118Z,44.96
2023-02-20T21:34:35.799Z,44.97
2023-02-20T21:37:02.436Z,45.32
2023-02-20T21:39:29.084Z,44.81
2023-02-20T21:42:15.104Z,44.68
2023-02-20T21:44:45.619Z,44.50
2023-02-20T21:47:12.271Z,44.74
2023-02-20T21:49:44.356Z,44.78
2023-02-20T21:52:12.236Z,44.35
2023-02-20T21:54:40.723Z,45.06
2023-02-20T21:57:07.429Z,44.39
2023-02-20T21:59:34.148Z,45.08
2023-02-20T22:02:00.851Z,44.44
2023-02-20T22:04:27.508Z,44.98
2023-02-20T22:07:13.021Z,44.34
2023-02-20T22:09:58.140Z,45.08
2023-02-20T22:12:43.034Z,44.92
2023-02-20T22:15:31.190Z,44.62
2023-02-20T22:18:16.511Z,44.51
2023-02-20T22:21:02.185Z,44.77
2023-02-20T22:23:47.644Z,44.32
2023-02-20T22:26:34.784Z,44.72
2023-02-20T22:29:20.460Z,44.38
2023-02-20T22:32:05.637Z,44.33
2023-02-20T22:34:56.715Z,44.83
2023-02-20T22:37:47.892Z,44.77
2023-02-20T22:40:33.230Z,44.60
2023-02-20T22:43:18.211Z,44.89
2023-02-20T22:46:06.038Z,44.81
2023-02-20T22:48:51.138Z,44.19
2023-02-20T22:51:36.897Z,44.82
2023-02-20T22:54:22.549Z,44.26
2023-02-20T22:57:07.808Z,44.36
2023-02-20T22:59:52.767Z,44.42
2023-02-20T23:02:38.004Z,44.31
2023-02-20T23:05:23.528Z,44.42
2023-02-20T23:08:08.720Z,44.46
2023-02-20T23:10:53.942Z,44.57
2023-02-20T23:13:38.903Z,44.36
2023-02-20T23:16:24.620Z,44.12
2023-02-20T23:19:10.216Z,44.48
2023-02-20T23:21:55.592Z,44.25
2023-02-20T23:24:40.621Z,44.70
2023-02-20T23:27:25.698Z,44.93
2023-02-20T23:30:11.593Z,44.90
2023-02-20T23:32:59.268Z,44.28
2023-02-20T23:35:44.408Z,44.42
2023-02-20T23:38:30.047Z,45.10
2023-02-20T23:41:15.287Z,44.84
2023-02-20T23:44:00.516Z,44.92
2023-02-20T23:46:45.403Z,44.44
2023-02-20T23:49:31.165Z,44.59
2023-02-20T23:52:17.028Z,44.40
2023-02-20T23:55:03.159Z,44.58
2023-02-20T23:57:48.573Z,44.61
